sensor_id;sensor_type;location;lat;lon;timestamp;pressure;altitude;pressure_sealevel;temperature;humidity
50672;BME280;46021;55.882;37.654;2023-01-25T00:01:02;101062.66;;;-2.26;71.70
50672;BME280;46021;55.882;37.654;2023-01-25T00:03:31;101062.84;;;-2.22;72.00
50672;BME280;46021;55.882;37.654;2023-01-25T00:05:58;101050.44;;;-2.33;71.12
50672;BME280;46021;55.882;37.654;2023-01-25T00:08:25;101056.47;;;-2.31;71.83
50672;BME280;46021;55.882;37.654;2023-01-25T00:10:52;101057.66;;;-2.23;71.92
50672;BME280;46021;55.882;37.654;2023-01-25T00:13:19;101061.19;;;-2.41;71.51
50672;BME280;46021;55.882;37.654;2023-01-25T00:15:46;101059.47;;;-2.42;72.08
50672;BME280;46021;55.882;37.654;2023-01-25T00:18:13;101056.75;;;-2.45;72.20
50672;BME280;46021;55.882;37.654;2023-01-25T00:20:42;101051.50;;;-2.48;71.88
50672;BME280;46021;55.882;37.654;2023-01-25T00:23:09;101050.19;;;-2.40;72.31
50672;BME280;46021;55.882;37.654;2023-01-25T00:25:36;101047.75;;;-2.37;72.34
50672;BME280;46021;55.882;37.654;2023-01-25T00:28:03;101035.03;;;-2.35;71.59
50672;BME280;46021;55.882;37.654;2023-01-25T00:30:31;101025.03;;;-2.30;72.03
50672;BME280;46021;55.882;37.654;2023-01-25T00:33:02;101019.94;;;-2.30;71.80
50672;BME280;46021;55.882;37.654;2023-01-25T00:35:33;101025.75;;;-2.33;71.29
50672;BME280;46021;55.882;37.654;2023-01-25T00:38:05;101017.41;;;-2.29;71.47
50672;BME280;46021;55.882;37.654;2023-01-25T00:40:44;101018.41;;;-2.46;71.92
50672;BME280;46021;55.882;37.654;2023-01-25T00:43:11;101004.56;;;-2.51;71.73
50672;BME280;46021;55.882;37.654;2023-01-25T00:45:39;101010.66;;;-2.48;71.45
50672;BME280;46021;55.882;37.654;2023-01-25T00:48:06;101014.16;;;-2.46;71.34
50672;BME280;46021;55.882;37.654;2023-01-25T00:50:35;101007.38;;;-2.45;71.32
50672;BME280;46021;55.882;37.654;2023-01-25T00:53:05;101010.81;;;-2.45;71.71
50672;BME280;46021;55.882;37.654;2023-01-25T00:55:33;101004.75;;;-2.47;71.83
50672;BME280;46021;55.882;37.654;2023-01-25T00:58:00;100989.06;;;-2.56;71.25
50672;BME280;46021;55.882;37.654;2023-01-25T01:00:27;100997.88;;;-2.49;71.38
50672;BME280;46021;55.882;37.654;2023-01-25T01:02:56;100993.22;;;-2.58;71.19
50672;BME280;46021;55.882;37.654;2023-01-25T01:05:23;100992.47;;;-2.56;71.38
50672;BME280;46021;55.882;37.654;2023-01-25T01:07:54;100999.44;;;-2.51;71.63
50672;BME280;46021;55.882;37.654;2023-01-25T01:10:23;100983.00;;;-2.58;71.61
50672;BME280;46021;55.882;37.654;2023-01-25T01:12:50;100987.50;;;-2.52;71.26
50672;BME280;46021;55.882;37.654;2023-01-25T01:15:17;100986.66;;;-2.53;71.58
50672;BME280;46021;55.882;37.654;2023-01-25T01:17:44;100994.31;;;-2.53;71.41
50672;BME280;46021;55.882;37.654;2023-01-25T01:20:12;100988.25;;;-2.55;71.65
50672;BME280;46021;55.882;37.654;2023-01-25T01:22:39;100979.53;;;-2.60;71.44
50672;BME280;46021;55.882;37.654;2023-01-25T01:25:07;100980.31;;;-2.61;71.49
50672;BME280;46021;55.882;37.654;2023-01-25T01:27:37;100968.50;;;-2.59;71.92
50672;BME280;46021;55.882;37.654;2023-01-25T01:30:05;100956.41;;;-2.63;71.64
50672;BME280;46021;55.882;37.654;2023-01-25T01:32:33;100963.47;;;-2.58;71.63
50672;BME280;46021;55.882;37.654;2023-01-25T01:35:00;100966.22;;;-2.53;71.65
50672;BME280;46021;55.882;37.654;2023-01-25T01:37:27;100962.13;;;-2.49;72.21
50672;BME280;46021;55.882;37.654;2023-01-25T01:39:54;100957.97;;;-2.46;71.76
50672;BME280;46021;55.882;37.654;2023-01-25T01:42:21;100958.13;;;-2.43;71.45
50672;BME280;46021;55.882;37.654;2023-01-25T01:44:51;100949.78;;;-2.39;71.79
50672;BME280;46021;55.882;37.654;2023-01-25T01:47:23;100944.59;;;-2.40;71.73
50672;BME280;46021;55.882;37.654;2023-01-25T01:49:58;100945.34;;;-2.43;71.17
50672;BME280;46021;55.882;37.654;2023-01-25T01:52:31;100952.22;;;-2.42;71.32
50672;BME280;46021;55.882;37.654;2023-01-25T01:55:01;100953.00;;;-2.43;71.85
50672;BME280;46021;55.882;37.654;2023-01-25T01:57:32;100951.16;;;-2.47;71.39
50672;BME280;46021;55.882;37.654;2023-01-25T02:00:05;100945.19;;;-2.47;71.72
50672;BME280;46021;55.882;37.654;2023-01-25T02:02:41;100942.94;;;-2.40;71.43
50672;BME280;46021;55.882;37.654;2023-01-25T02:05:16;100942.09;;;-2.39;71.60
50672;BME280;46021;55.882;37.654;2023-01-25T02:07:46;100941.19;;;-2.41;71.95
50672;BME280;46021;55.882;37.654;2023-01-25T02:10:17;100952.25;;;-2.40;71.99
50672;BME280;46021;55.882;37.654;2023-01-25T02:12:47;100961.50;;;-2.44;71.98
50672;BME280;46021;55.882;37.654;2023-01-25T02:15:16;100968.16;;;-2.47;71.45
50672;BME280;46021;55.882;37.654;2023-01-25T02:17:43;100963.09;;;-2.46;71.94
50672;BME280;46021;55.882;37.654;2023-01-25T02:20:17;100956.25;;;-2.47;71.88
50672;BME280;46021;55.882;37.654;2023-01-25T02:22:52;100955.94;;;-2.55;71.53
50672;BME280;46021;55.882;37.654;2023-01-25T02:25:22;100962.72;;;-2.55;71.03
50672;BME280;46021;55.882;37.654;2023-01-25T02:27:52;100959.22;;;-2.57;71.17
50672;BME280;46021;55.882;37.654;2023-01-25T02:30:21;100957.63;;;-2.55;71.54
50672;BME280;46021;55.882;37.654;2023-01-25T02:32:50;100950.53;;;-2.62;70.90
50672;BME280;46021;55.882;37.654;2023-01-25T02:35:18;100967.78;;;-2.57;71.14
50672;BME280;46021;55.882;37.654;2023-01-25T02:37:48;100981.56;;;-2.51;71.52
50672;BME280;46021;55.882;37.654;2023-01-25T02:40:16;100973.25;;;-2.47;71.76
50672;BME280;46021;55.882;37.654;2023-01-25T02:42:44;100972.38;;;-2.48;71.43
50672;BME280;46021;55.882;37.654;2023-01-25T02:45:15;100971.56;;;-2.47;71.25
50672;BME280;46021;55.882;37.654;2023-01-25T02:47:44;100964.72;;;-2.48;71.30
50672;BME280;46021;55.882;37.654;2023-01-25T02:50:13;100960.50;;;-2.47;71.51
50672;BME280;46021;55.882;37.654;2023-01-25T02:52:40;100947.53;;;-2.52;71.07
50672;BME280;46021;55.882;37.654;2023-01-25T02:55:08;100960.13;;;-2.57;71.26
50672;BME280;46021;55.882;37.654;2023-01-25T02:57:38;100968.88;;;-2.50;70.77
50672;BME280;46021;55.882;37.654;2023-01-25T03:00:08;100962.16;;;-2.48;71.07
50672;BME280;46021;55.882;37.654;2023-01-25T03:02:36;100963.91;;;-2.47;70.97
50672;BME280;46021;55.882;37.654;2023-01-25T03:05:04;100965.78;;;-2.43;71.31
50672;BME280;46021;55.882;37.654;2023-01-25T03:07:31;100960.81;;;-2.40;70.78
50672;BME280;46021;55.882;37.654;2023-01-25T03:09:58;100953.25;;;-2.37;70.85
50672;BME280;46021;55.882;37.654;2023-01-25T03:12:25;100948.91;;;-2.39;71.38
50672;BME280;46021;55.882;37.654;2023-01-25T03:14:53;100950.78;;;-2.35;71.22
50672;BME280;46021;55.882;37.654;2023-01-25T03:17:21;100950.91;;;-2.32;71.58
50672;BME280;46021;55.882;37.654;2023-01-25T03:19:49;100946.72;;;-2.30;71.22
50672;BME280;46021;55.882;37.654;2023-01-25T03:22:18;100938.22;;;-2.30;70.99
50672;BME280;46021;55.882;37.654;2023-01-25T03:24:45;100936.59;;;-2.28;71.17
50672;BME280;46021;55.882;37.654;2023-01-25T03:27:13;100931.47;;;-2.28;70.66
50672;BME280;46021;55.882;37.654;2023-01-25T03:29:56;100931.03;;;-2.39;71.14
50672;BME280;46021;55.882;37.654;2023-01-25T03:32:27;100936.44;;;-2.31;71.14
50672;BME280;46021;55.882;37.654;2023-01-25T03:35:00;100938.06;;;-2.33;71.27
50672;BME280;46021;55.882;37.654;2023-01-25T03:37:29;100934.72;;;-2.32;71.21
50672;BME280;46021;55.882;37.654;2023-01-25T03:39:57;100942.19;;;-2.37;71.71
50672;BME280;46021;55.882;37.654;2023-01-25T03:42:24;100944.03;;;-2.33;71.23
50672;BME280;46021;55.882;37.654;2023-01-25T03:44:55;100935.66;;;-2.30;71.39
50672;BME280;46021;55.882;37.654;2023-01-25T03:47:22;100937.22;;;-2.34;71.55
50672;BME280;46021;55.882;37.654;2023-01-25T03:49:52;100931.97;;;-2.37;71.34
50672;BME280;46021;55.882;37.654;2023-01-25T03:52:19;100921.63;;;-2.40;71.86
50672;BME280;46021;55.882;37.654;2023-01-25T03:55:01;100923.06;;;-2.47;71.39
50672;BME280;46021;55.882;37.654;2023-01-25T03:57:29;100929.88;;;-2.47;71.96
50672;BME280;46021;55.882;37.654;2023-01-25T04:00:01;100920.31;;;-2.51;72.41
50672;BME280;46021;55.882;37.654;2023-01-25T04:02:30;100923.63;;;-2.54;71.70
50672;BME280;46021;55.882;37.654;2023-01-25T04:04:59;100921.75;;;-2.58;72.35
50672;BME280;46021;55.882;37.654;2023-01-25T04:07:26;100926.72;;;-2.61;72.88
50672;BME280;46021;55.882;37.654;2023-01-25T04:09:53;100925.31;;;-2.55;73.18
50672;BME280;46021;55.882;37.654;2023-01-25T04:12:20;100923.75;;;-2.51;72.75
50672;BME280;46021;55.882;37.654;2023-01-25T04:14:47;100929.41;;;-2.58;72.35
50672;BME280;46021;55.882;37.654;2023-01-25T04:17:19;100928.59;;;-2.57;73.05
50672;BME280;46021;55.882;37.654;2023-01-25T04:20:11;100935.31;;;-2.59;73.34
50672;BME280;46021;55.882;37.654;2023-01-25T04:22:39;100926.03;;;-2.57;72.49
50672;BME280;46021;55.882;37.654;2023-01-25T04:25:08;100932.09;;;-2.55;72.54
50672;BME280;46021;55.882;37.654;2023-01-25T04:27:40;100937.00;;;-2.60;72.85
50672;BME280;46021;55.882;37.654;2023-01-25T04:30:11;100933.44;;;-2.63;72.68
50672;BME280;46021;55.882;37.654;2023-01-25T04:32:40;100940.38;;;-2.61;72.75
50672;BME280;46021;55.882;37.654;2023-01-25T04:35:19;100927.72;;;-2.58;72.74
50672;BME280;46021;55.882;37.654;2023-01-25T04:37:52;100930.47;;;-2.53;72.82
50672;BME280;46021;55.882;37.654;2023-01-25T04:40:20;100933.59;;;-2.60;73.21
50672;BME280;46021;55.882;37.654;2023-01-25T04:42:47;100942.94;;;-2.61;73.22
50672;BME280;46021;55.882;37.654;2023-01-25T04:45:15;100944.66;;;-2.60;73.18
50672;BME280;46021;55.882;37.654;2023-01-25T04:47:42;100934.00;;;-2.70;72.72
50672;BME280;46021;55.882;37.654;2023-01-25T04:50:09;100940.41;;;-2.59;73.32
50672;BME280;46021;55.882;37.654;2023-01-25T04:52:38;100931.56;;;-2.67;73.88
50672;BME280;46021;55.882;37.654;2023-01-25T04:55:05;100945.28;;;-2.65;72.61
50672;BME280;46021;55.882;37.654;2023-01-25T04:57:38;100943.66;;;-2.63;72.42
50672;BME280;46021;55.882;37.654;2023-01-25T05:00:07;100947.03;;;-2.64;72.75
50672;BME280;46021;55.882;37.654;2023-01-25T05:02:36;100935.88;;;-2.66;73.37
50672;BME280;46021;55.882;37.654;2023-01-25T05:05:06;100939.44;;;-2.63;73.15
50672;BME280;46021;55.882;37.654;2023-01-25T05:07:33;100942.19;;;-2.58;73.46
50672;BME280;46021;55.882;37.654;2023-01-25T05:10:03;100941.56;;;-2.52;73.32
50672;BME280;46021;55.882;37.654;2023-01-25T05:12:31;100943.28;;;-2.51;73.02
50672;BME280;46021;55.882;37.654;2023-01-25T05:15:04;100938.44;;;-2.45;72.50
50672;BME280;46021;55.882;37.654;2023-01-25T05:17:31;100935.97;;;-2.44;72.58
50672;BME280;46021;55.882;37.654;2023-01-25T05:19:59;100942.81;;;-2.43;72.56
50672;BME280;46021;55.882;37.654;2023-01-25T05:22:27;100941.94;;;-2.43;72.25
50672;BME280;46021;55.882;37.654;2023-01-25T05:24:56;100941.88;;;-2.45;72.73
50672;BME280;46021;55.882;37.654;2023-01-25T05:27:25;100943.72;;;-2.41;72.53
50672;BME280;46021;55.882;37.654;2023-01-25T05:29:55;100936.06;;;-2.41;72.11
50672;BME280;46021;55.882;37.654;2023-01-25T05:32:40;100949.91;;;-2.36;72.43
50672;BME280;46021;55.882;37.654;2023-01-25T05:35:08;100957.38;;;-2.40;72.22
50672;BME280;46021;55.882;37.654;2023-01-25T05:37:35;100939.56;;;-2.39;72.62
50672;BME280;46021;55.882;37.654;2023-01-25T05:40:08;100938.75;;;-2.38;72.52
50672;BME280;46021;55.882;37.654;2023-01-25T05:42:40;100931.91;;;-2.39;72.65
50672;BME280;46021;55.882;37.654;2023-01-25T05:45:15;100927.84;;;-2.33;72.89
50672;BME280;46021;55.882;37.654;2023-01-25T05:47:44;100927.84;;;-2.33;72.27
50672;BME280;46021;55.882;37.654;2023-01-25T05:50:12;100929.72;;;-2.29;72.21
50672;BME280;46021;55.882;37.654;2023-01-25T05:52:51;100921.34;;;-2.27;72.52
50672;BME280;46021;55.882;37.654;2023-01-25T05:55:19;100913.91;;;-2.42;72.31
50672;BME280;46021;55.882;37.654;2023-01-25T05:57:48;100924.50;;;-2.32;72.32
50672;BME280;46021;55.882;37.654;2023-01-25T06:00:17;100919.50;;;-2.29;72.68
50672;BME280;46021;55.882;37.654;2023-01-25T06:02:44;100916.84;;;-2.32;71.93
50672;BME280;46021;55.882;37.654;2023-01-25T06:05:15;100922.88;;;-2.30;72.44
50672;BME280;46021;55.882;37.654;2023-01-25T06:07:43;100930.78;;;-2.24;72.28
50672;BME280;46021;55.882;37.654;2023-01-25T06:10:11;100938.56;;;-2.21;72.50
50672;BME280;46021;55.882;37.654;2023-01-25T06:12:39;100917.88;;;-2.27;71.87
50672;BME280;46021;55.882;37.654;2023-01-25T06:15:08;100930.66;;;-2.27;71.68
50672;BME280;46021;55.882;37.654;2023-01-25T06:17:35;100933.19;;;-2.27;72.00
50672;BME280;46021;55.882;37.654;2023-01-25T06:20:21;100931.53;;;-2.27;72.32
50672;BME280;46021;55.882;37.654;2023-01-25T06:23:14;100931.47;;;-2.28;71.92
50672;BME280;46021;55.882;37.654;2023-01-25T06:25:41;100926.38;;;-2.28;72.16
50672;BME280;46021;55.882;37.654;2023-01-25T06:28:09;100926.22;;;-2.31;72.48
50672;BME280;46021;55.882;37.654;2023-01-25T06:30:37;100914.22;;;-2.34;72.27
50672;BME280;46021;55.882;37.654;2023-01-25T06:33:04;100925.13;;;-2.38;72.27
50672;BME280;46021;55.882;37.654;2023-01-25T06:35:32;100930.03;;;-2.43;72.05
50672;BME280;46021;55.882;37.654;2023-01-25T06:37:59;100934.34;;;-2.42;72.64
50672;BME280;46021;55.882;37.654;2023-01-25T06:40:27;100928.31;;;-2.44;72.25
50672;BME280;46021;55.882;37.654;2023-01-25T06:42:54;100934.59;;;-2.36;72.68
50672;BME280;46021;55.882;37.654;2023-01-25T06:45:22;100932.97;;;-2.33;71.92
50672;BME280;46021;55.882;37.654;2023-01-25T06:47:50;100935.53;;;-2.33;72.52
50672;BME280;46021;55.882;37.654;2023-01-25T06:50:17;100948.22;;;-2.35;72.51
50672;BME280;46021;55.882;37.654;2023-01-25T06:52:50;100943.19;;;-2.33;72.00
50672;BME280;46021;55.882;37.654;2023-01-25T06:55:17;100942.25;;;-2.36;72.50
50672;BME280;46021;55.882;37.654;2023-01-25T06:57:45;100948.53;;;-2.48;72.63
50672;BME280;46021;55.882;37.654;2023-01-25T07:00:13;100949.22;;;-2.52;72.04
50672;BME280;46021;55.882;37.654;2023-01-25T07:02:40;100947.66;;;-2.49;72.09
50672;BME280;46021;55.882;37.654;2023-01-25T07:05:09;100944.28;;;-2.48;71.86
50672;BME280;46021;55.882;37.654;2023-01-25T07:07:36;100946.03;;;-2.47;72.35
50672;BME280;46021;55.882;37.654;2023-01-25T07:10:04;100942.66;;;-2.46;71.87
50672;BME280;46021;55.882;37.654;2023-01-25T07:12:31;100922.94;;;-2.50;72.60
50672;BME280;46021;55.882;37.654;2023-01-25T07:14:58;100924.63;;;-2.50;71.84
50672;BME280;46021;55.882;37.654;2023-01-25T07:17:25;100929.97;;;-2.44;72.56
50672;BME280;46021;55.882;37.654;2023-01-25T07:19:52;100933.72;;;-2.36;72.37
50672;BME280;46021;55.882;37.654;2023-01-25T07:22:20;100925.44;;;-2.30;71.98
50672;BME280;46021;55.882;37.654;2023-01-25T07:24:49;100931.47;;;-2.28;72.23
50672;BME280;46021;55.882;37.654;2023-01-25T07:27:18;100927.22;;;-2.28;71.71
50672;BME280;46021;55.882;37.654;2023-01-25T07:29:45;100907.66;;;-2.27;71.41
50672;BME280;46021;55.882;37.654;2023-01-25T07:32:12;100923.00;;;-2.27;71.65
50672;BME280;46021;55.882;37.654;2023-01-25T07:34:39;100923.91;;;-2.25;71.94
50672;BME280;46021;55.882;37.654;2023-01-25T07:37:06;100921.50;;;-2.22;71.96
50672;BME280;46021;55.882;37.654;2023-01-25T07:39:36;100910.28;;;-2.26;71.86
50672;BME280;46021;55.882;37.654;2023-01-25T07:42:03;100921.34;;;-2.27;71.94
50672;BME280;46021;55.882;37.654;2023-01-25T07:44:31;100926.84;;;-2.16;71.63
50672;BME280;46021;55.882;37.654;2023-01-25T07:47:10;100930.25;;;-2.16;72.00
50672;BME280;46021;55.882;37.654;2023-01-25T07:49:37;100930.53;;;-2.09;71.60
50672;BME280;46021;55.882;37.654;2023-01-25T07:52:04;100930.22;;;-2.17;71.32
50672;BME280;46021;55.882;37.654;2023-01-25T07:54:31;100907.78;;;-2.24;71.27
50672;BME280;46021;55.882;37.654;2023-01-25T07:56:59;100923.97;;;-2.24;70.79
50672;BME280;46021;55.882;37.654;2023-01-25T07:59:27;100926.09;;;-2.35;71.41
50672;BME280;46021;55.882;37.654;2023-01-25T08:01:55;100915.16;;;-2.53;71.57
50672;BME280;46021;55.882;37.654;2023-01-25T08:04:22;100923.75;;;-2.51;71.92
50672;BME280;46021;55.882;37.654;2023-01-25T08:06:50;100925.69;;;-2.45;71.57
50672;BME280;46021;55.882;37.654;2023-01-25T08:09:17;100933.69;;;-2.57;71.64
50672;BME280;46021;55.882;37.654;2023-01-25T08:11:45;100928.94;;;-2.49;72.31
50672;BME280;46021;55.882;37.654;2023-01-25T08:14:15;100934.81;;;-2.50;71.75
50672;BME280;46021;55.882;37.654;2023-01-25T08:16:42;100920.59;;;-2.45;72.04
50672;BME280;46021;55.882;37.654;2023-01-25T08:19:10;100909.06;;;-2.36;71.68
50672;BME280;46021;55.882;37.654;2023-01-25T08:21:37;100923.50;;;-2.15;71.89
50672;BME280;46021;55.882;37.654;2023-01-25T08:24:05;100915.19;;;-2.09;71.47
50672;BME280;46021;55.882;37.654;2023-01-25T08:26:33;100922.22;;;-2.04;71.25
50672;BME280;46021;55.882;37.654;2023-01-25T08:29:01;100919.13;;;-2.18;71.12
50672;BME280;46021;55.882;37.654;2023-01-25T08:31:31;100926.38;;;-2.28;71.77
50672;BME280;46021;55.882;37.654;2023-01-25T08:34:00;100914.41;;;-2.29;71.95
50672;BME280;46021;55.882;37.654;2023-01-25T08:36:27;100914.72;;;-2.43;72.47
50672;BME280;46021;55.882;37.654;2023-01-25T08:38:55;100912.16;;;-2.43;72.28
50672;BME280;46021;55.882;37.654;2023-01-25T08:41:23;100913.78;;;-2.45;72.25
50672;BME280;46021;55.882;37.654;2023-01-25T08:43:50;100906.00;;;-2.48;72.36
50672;BME280;46021;55.882;37.654;2023-01-25T08:46:18;100899.03;;;-2.52;72.58
50672;BME280;46021;55.882;37.654;2023-01-25T08:48:47;100893.13;;;-2.51;72.98
50672;BME280;46021;55.882;37.654;2023-01-25T08:51:15;100893.59;;;-2.39;72.81
50672;BME280;46021;55.882;37.654;2023-01-25T08:53:42;100878.97;;;-2.43;72.98
50672;BME280;46021;55.882;37.654;2023-01-25T08:56:11;100882.34;;;-2.44;72.99
50672;BME280;46021;55.882;37.654;2023-01-25T08:58:40;100864.09;;;-2.53;73.13
50672;BME280;46021;55.882;37.654;2023-01-25T09:01:09;100866.28;;;-2.62;73.32
50672;BME280;46021;55.882;37.654;2023-01-25T09:03:38;100862.47;;;-2.51;72.86
50672;BME280;46021;55.882;37.654;2023-01-25T09:06:07;100866.56;;;-2.33;72.95
50672;BME280;46021;55.882;37.654;2023-01-25T09:08:35;100859.34;;;-2.23;72.95
50672;BME280;46021;55.882;37.654;2023-01-25T09:11:03;100862.41;;;-2.09;72.65
50672;BME280;46021;55.882;37.654;2023-01-25T09:13:31;100846.44;;;-2.03;72.63
50672;BME280;46021;55.882;37.654;2023-01-25T09:15:59;100836.50;;;-1.96;72.88
50672;BME280;46021;55.882;37.654;2023-01-25T09:18:26;100847.88;;;-1.87;72.10
50672;BME280;46021;55.882;37.654;2023-01-25T09:20:53;100846.09;;;-1.90;71.98
50672;BME280;46021;55.882;37.654;2023-01-25T09:23:22;100840.13;;;-1.90;72.08
50672;BME280;46021;55.882;37.654;2023-01-25T09:25:55;100831.19;;;-2.02;72.19
50672;BME280;46021;55.882;37.654;2023-01-25T09:28:22;100831.97;;;-2.03;72.17
50672;BME280;46021;55.882;37.654;2023-01-25T09:30:53;100825.16;;;-2.04;71.69
50672;BME280;46021;55.882;37.654;2023-01-25T09:33:29;100822.34;;;-2.10;72.54
50672;BME280;46021;55.882;37.654;2023-01-25T09:35:57;100826.78;;;-2.06;72.45
50672;BME280;46021;55.882;37.654;2023-01-25T09:38:25;100812.38;;;-2.04;71.83
50672;BME280;46021;55.882;37.654;2023-01-25T09:41:03;100818.41;;;-2.02;71.90
50672;BME280;46021;55.882;37.654;2023-01-25T09:43:48;100799.75;;;-2.22;72.11
50672;BME280;46021;55.882;37.654;2023-01-25T09:46:25;100805.50;;;-2.27;72.56
50672;BME280;46021;55.882;37.654;2023-01-25T09:49:01;100787.75;;;-2.24;72.18
50672;BME280;46021;55.882;37.654;2023-01-25T09:51:44;100796.69;;;-2.36;72.53
50672;BME280;46021;55.882;37.654;2023-01-25T09:54:17;100788.69;;;-2.45;73.40
50672;BME280;46021;55.882;37.654;2023-01-25T09:56:47;100790.59;;;-2.39;73.07
50672;BME280;46021;55.882;37.654;2023-01-25T09:59:18;100772.78;;;-2.38;72.95
50672;BME280;46021;55.882;37.654;2023-01-25T10:01:55;100790.31;;;-2.24;72.56
50672;BME280;46021;55.882;37.654;2023-01-25T10:04:25;100786.59;;;-2.32;72.87
50672;BME280;46021;55.882;37.654;2023-01-25T10:06:56;100770.22;;;-2.38;72.68
50672;BME280;46021;55.882;37.654;2023-01-25T10:09:33;100773.84;;;-2.32;73.26
50672;BME280;46021;55.882;37.654;2023-01-25T10:12:13;100781.16;;;-2.19;72.43
50672;BME280;46021;55.882;37.654;2023-01-25T10:14:41;100764.13;;;-2.19;72.78
50672;BME280;46021;55.882;37.654;2023-01-25T10:17:13;100776.97;;;-2.17;72.84
50672;BME280;46021;55.882;37.654;2023-01-25T10:19:52;100774.88;;;-2.27;72.91
50672;BME280;46021;55.882;37.654;2023-01-25T10:22:27;100780.09;;;-2.24;73.14
50672;BME280;46021;55.882;37.654;2023-01-25T10:25:10;100779.75;;;-2.33;73.52
50672;BME280;46021;55.882;37.654;2023-01-25T10:27:43;100777.06;;;-2.37;73.69
50672;BME280;46021;55.882;37.654;2023-01-25T10:30:25;100779.53;;;-2.40;73.27
50672;BME280;46021;55.882;37.654;2023-01-25T10:32:54;100770.59;;;-2.51;73.36
50672;BME280;46021;55.882;37.654;2023-01-25T10:35:27;100766.50;;;-2.46;74.00
50672;BME280;46021;55.882;37.654;2023-01-25T10:37:58;100768.81;;;-2.52;74.02
50672;BME280;46021;55.882;37.654;2023-01-25T10:40:37;100759.66;;;-2.47;73.45
50672;BME280;46021;55.882;37.654;2023-01-25T10:43:10;100761.28;;;-2.49;74.16
50672;BME280;46021;55.882;37.654;2023-01-25T10:45:39;100750.38;;;-2.45;73.24
50672;BME280;46021;55.882;37.654;2023-01-25T10:48:12;100751.16;;;-2.47;73.63
50672;BME280;46021;55.882;37.654;2023-01-25T10:50:44;100744.47;;;-2.44;73.03
50672;BME280;46021;55.882;37.654;2023-01-25T10:53:27;100741.22;;;-2.40;73.55
50672;BME280;46021;55.882;37.654;2023-01-25T10:56:13;100742.25;;;-2.35;73.85
50672;BME280;46021;55.882;37.654;2023-01-25T10:58:44;100735.19;;;-2.18;73.27
50672;BME280;46021;55.882;37.654;2023-01-25T11:01:23;100736.47;;;-2.06;72.92
50672;BME280;46021;55.882;37.654;2023-01-25T11:03:50;100730.56;;;-2.05;72.80
50672;BME280;46021;55.882;37.654;2023-01-25T11:06:29;100720.81;;;-1.91;72.83
50672;BME280;46021;55.882;37.654;2023-01-25T11:08:57;100724.78;;;-2.00;72.58
50672;BME280;46021;55.882;37.654;2023-01-25T11:11:30;100721.53;;;-1.96;72.36
50672;BME280;46021;55.882;37.654;2023-01-25T11:13:59;100713.53;;;-2.05;72.57
50672;BME280;46021;55.882;37.654;2023-01-25T11:16:31;100716.53;;;-2.17;72.94
50672;BME280;46021;55.882;37.654;2023-01-25T11:19:00;100716.84;;;-2.31;73.34
50672;BME280;46021;55.882;37.654;2023-01-25T11:21:30;100700.31;;;-2.41;73.13
50672;BME280;46021;55.882;37.654;2023-01-25T11:24:03;100715.09;;;-2.32;73.11
50672;BME280;46021;55.882;37.654;2023-01-25T11:26:33;100708.25;;;-2.33;73.21
50672;BME280;46021;55.882;37.654;2023-01-25T11:29:15;100705.56;;;-2.37;73.67
50672;BME280;46021;55.882;37.654;2023-01-25T11:31:43;100699.44;;;-2.42;73.35
50672;BME280;46021;55.882;37.654;2023-01-25T11:34:13;100704.31;;;-2.48;73.45
50672;BME280;46021;55.882;37.654;2023-01-25T11:36:54;100697.34;;;-2.52;73.92
50672;BME280;46021;55.882;37.654;2023-01-25T11:39:37;100694.78;;;-2.52;73.65
50672;BME280;46021;55.882;37.654;2023-01-25T11:42:24;100691.53;;;-2.48;73.80
50672;BME280;46021;55.882;37.654;2023-01-25T11:45:19;100682.28;;;-2.68;73.44
50672;BME280;46021;55.882;37.654;2023-01-25T11:47:57;100678.13;;;-2.65;74.26
50672;BME280;46021;55.882;37.654;2023-01-25T11:50:33;100677.13;;;-2.70;73.47
50672;BME280;46021;55.882;37.654;2023-01-25T11:53:28;100687.63;;;-2.62;74.32
50672;BME280;46021;55.882;37.654;2023-01-25T11:56:06;100689.59;;;-2.55;73.43
50672;BME280;46021;55.882;37.654;2023-01-25T11:58:52;100689.81;;;-2.49;74.20
50672;BME280;46021;55.882;37.654;2023-01-25T12:01:33;100693.28;;;-2.69;74.22
50672;BME280;46021;55.882;37.654;2023-01-25T12:07:16;100688.81;;;-2.75;73.53
50672;BME280;46021;55.882;37.654;2023-01-25T12:09:58;100690.09;;;-2.64;73.65
50672;BME280;46021;55.882;37.654;2023-01-25T12:12:38;100689.59;;;-2.55;73.91
50672;BME280;46021;55.882;37.654;2023-01-25T12:15:31;100682.16;;;-2.49;73.52
50672;BME280;46021;55.882;37.654;2023-01-25T12:18:13;100680.31;;;-2.53;72.29
50672;BME280;46021;55.882;37.654;2023-01-25T12:21:02;100677.13;;;-2.70;72.11
50672;BME280;46021;55.882;37.654;2023-01-25T12:23:37;100671.13;;;-2.70;72.24
50672;BME280;46021;55.882;37.654;2023-01-25T12:26:15;100667.28;;;-2.82;72.63
50672;BME280;46021;55.882;37.654;2023-01-25T12:28:47;100671.47;;;-2.84;72.28
50672;BME280;46021;55.882;37.654;2023-01-25T12:31:21;100670.81;;;-2.80;72.22
50672;BME280;46021;55.882;37.654;2023-01-25T12:33:54;100666.63;;;-2.78;71.95
50672;BME280;46021;55.882;37.654;2023-01-25T12:36:26;100661.63;;;-2.75;72.00
50672;BME280;46021;55.882;37.654;2023-01-25T12:38:57;100655.25;;;-2.86;71.92
50672;BME280;46021;55.882;37.654;2023-01-25T12:41:33;100660.81;;;-2.73;72.27
50672;BME280;46021;55.882;37.654;2023-01-25T12:44:14;100650.03;;;-2.89;71.77
50672;BME280;46021;55.882;37.654;2023-01-25T12:46:50;100649.41;;;-2.83;71.58
50672;BME280;46021;55.882;37.654;2023-01-25T12:49:24;100648.06;;;-2.73;71.42
50672;BME280;46021;55.882;37.654;2023-01-25T12:51:55;100657.72;;;-2.65;71.15
50672;BME280;46021;55.882;37.654;2023-01-25T12:54:30;100648.75;;;-2.78;71.31
50672;BME280;46021;55.882;37.654;2023-01-25T12:57:09;100655.59;;;-2.77;71.57
50672;BME280;46021;55.882;37.654;2023-01-25T12:59:44;100653.97;;;-2.75;70.78
50672;BME280;46021;55.882;37.654;2023-01-25T13:02:29;100639.41;;;-2.77;70.53